createdAt,value
2022-10-10T00:01:06.179Z,12.50
2022-10-10T00:03:34.533Z,12.40
2022-10-10T00:06:02.784Z,12.30
2022-10-10T00:08:31.042Z,12.30
2022-10-10T00:10:59.412Z,12.30
2022-10-10T00:13:27.827Z,12.30
2022-10-10T00:15:56.478Z,12.30
2022-10-10T00:18:28.903Z,12.20
2022-10-10T00:20:57.258Z,12.20
2022-10-10T00:23:28.870Z,12.10
2022-10-10T00:25:57.638Z,12.10
2022-10-10T00:28:26.287Z,12.10
2022-10-10T00:30:54.760Z,12.10
2022-10-10T00:33:23.220Z,12.10
2022-10-10T00:35:52.814Z,12.10
2022-10-10T00:38:21.105Z,12.00
2022-10-10T00:40:51.752Z,12.00
2022-10-10T00:43:20.406Z,12.10
2022-10-10T00:45:49.639Z,12.00
2022-10-10T00:48:21.239Z,11.90
2022-10-10T00:50:55.517Z,11.90
2022-10-10T00:53:26.908Z,12.00
2022-10-10T00:55:56.607Z,11.90
2022-10-10T00:58:25.877Z,11.80
2022-10-10T01:00:54.539Z,11.80
2022-10-10T01:03:22.987Z,11.70
2022-10-10T01:05:52.172Z,11.80
2022-10-10T01:08:22.614Z,11.80
2022-10-10T01:11:06.353Z,11.70
2022-10-10T01:13:40.139Z,11.80
2022-10-10T01:16:13.021Z,11.70
2022-10-10T01:18:50.280Z,11.70
2022-10-10T01:21:28.198Z,11.60
2022-10-10T01:24:27.233Z,11.60
2022-10-10T01:27:31.010Z,11.60
2022-10-10T01:30:05.815Z,11.50
2022-10-10T01:32:38.820Z,11.50
2022-10-10T01:35:40.732Z,11.50
2022-10-10T01:38:22.115Z,11.50
2022-10-10T01:40:55.166Z,11.50
2022-10-10T01:43:25.934Z,11.40
2022-10-10T01:45:56.329Z,11.50
2022-10-10T01:48:31.819Z,11.40
2022-10-10T01:51:16.386Z,11.40
2022-10-10T01:53:50.932Z,11.50
2022-10-10T01:56:28.448Z,11.40
2022-10-10T01:59:12.403Z,11.50
2022-10-10T02:01:48.685Z,11.40
2022-10-10T02:04:27.874Z,11.50
2022-10-10T02:07:01.614Z,11.40
2022-10-10T02:09:35.698Z,11.50
2022-10-10T02:12:05.689Z,11.40
2022-10-10T02:14:37.372Z,11.40
2022-10-10T02:17:10.808Z,11.30
2022-10-10T02:19:39.840Z,11.30
2022-10-10T02:22:08.569Z,11.30
2022-10-10T02:24:36.867Z,11.30
2022-10-10T02:27:09.500Z,11.40
2022-10-10T02:29:40.229Z,11.40
2022-10-10T02:32:15.143Z,11.30
2022-10-10T02:34:47.568Z,11.30
2022-10-10T02:37:17.378Z,11.30
2022-10-10T02:39:49.325Z,11.20
2022-10-10T02:42:21.607Z,11.20
2022-10-10T02:44:50.060Z,11.10
2022-10-10T02:47:19.845Z,11.10
2022-10-10T02:49:48.604Z,11.10
2022-10-10T02:52:17.984Z,11.00
2022-10-10T02:54:46.376Z,10.90
2022-10-10T02:57:15.333Z,10.90
2022-10-10T02:59:48.557Z,10.90
2022-10-10T03:02:16.778Z,10.90
2022-10-10T03:04:46.596Z,10.90
2022-10-10T03:07:14.936Z,10.90
2022-10-10T03:09:43.259Z,11.00
2022-10-10T03:12:11.544Z,10.90
2022-10-10T03:14:39.915Z,10.80
2022-10-10T03:17:08.155Z,10.80
2022-10-10T03:19:36.462Z,10.80
2022-10-10T03:22:06.264Z,10.70
2022-10-10T03:24:34.627Z,10.80
2022-10-10T03:27:02.987Z,10.70
2022-10-10T03:29:31.509Z,10.70
2022-10-10T03:31:59.666Z,10.70
2022-10-10T03:34:28.171Z,10.70
2022-10-10T03:36:56.859Z,10.70
2022-10-10T03:39:26.379Z,10.70
2022-10-10T03:41:54.817Z,10.60
2022-10-10T03:44:23.062Z,10.60
2022-10-10T03:46:51.713Z,10.60
2022-10-10T03:49:24.610Z,10.70
2022-10-10T03:51:53.656Z,10.70
2022-10-10T03:54:22.035Z,10.70
2022-10-10T03:56:51.511Z,10.60
2022-10-10T03:59:19.893Z,10.60
2022-10-10T04:01:48.163Z,10.60
2022-10-10T04:04:16.498Z,10.60
2022-10-10T04:06:45.045Z,10.60
2022-10-10T04:09:13.555Z,10.60
2022-10-10T04:11:41.950Z,10.70
2022-10-10T04:14:11.534Z,10.70
2022-10-10T04:16:40.173Z,10.60
2022-10-10T04:19:08.663Z,10.60
2022-10-10T04:21:37.139Z,10.60
2022-10-10T04:24:05.743Z,10.60
2022-10-10T04:26:34.563Z,10.50
2022-10-10T04:29:02.928Z,10.50
2022-10-10T04:31:32.486Z,10.50
2022-10-10T04:34:01.098Z,10.50
2022-10-10T04:36:29.425Z,10.40
2022-10-10T04:38:57.731Z,10.50
2022-10-10T04:41:25.901Z,10.50
2022-10-10T04:43:54.294Z,10.40
2022-10-10T04:46:22.726Z,10.40
2022-10-10T04:48:52.239Z,10.40
2022-10-10T04:51:20.801Z,10.40
2022-10-10T04:53:50.587Z,10.40
2022-10-10T04:56:19.502Z,10.30
2022-10-10T04:58:47.908Z,10.40
2022-10-10T05:01:16.395Z,10.40
2022-10-10T05:03:44.697Z,10.40
2022-10-10T05:06:14.590Z,10.40
2022-10-10T05:08:42.765Z,10.30
2022-10-10T05:11:11.296Z,10.40
2022-10-10T05:13:39.626Z,10.40
2022-10-10T05:16:08.107Z,10.40
2022-10-10T05:18:37.526Z,10.40
2022-10-10T05:21:06.971Z,10.40
2022-10-10T05:23:38.018Z,10.40
2022-10-10T05:26:06.666Z,10.40
2022-10-10T05:28:36.519Z,10.40
2022-10-10T05:31:05.378Z,10.40
2022-10-10T05:33:34.050Z,10.40
2022-10-10T05:36:08.056Z,10.40
2022-10-10T05:38:37.702Z,10.40
2022-10-10T05:41:06.189Z,10.40
2022-10-10T05:43:35.250Z,10.40
2022-10-10T05:46:04.438Z,10.40
2022-10-10T05:48:32.750Z,10.50
2022-10-10T05:51:01.801Z,10.50
2022-10-10T05:53:31.094Z,10.50
2022-10-10T05:56:02.192Z,10.60
2022-10-10T05:58:30.798Z,10.60
2022-10-10T06:01:04.472Z,10.70
2022-10-10T06:03:32.936Z,10.70
2022-10-10T06:06:01.628Z,10.70
2022-10-10T06:08:31.282Z,10.80
2022-10-10T06:11:07.967Z,10.80
2022-10-10T06:13:36.312Z,10.80
2022-10-10T06:16:05.099Z,10.80
2022-10-10T06:18:33.258Z,10.80
2022-10-10T06:21:03.653Z,10.80
2022-10-10T06:23:31.772Z,10.80
2022-10-10T06:26:00.574Z,10.90
2022-10-10T06:28:30.549Z,10.90
2022-10-10T06:31:01.695Z,10.90
2022-10-10T06:33:30.050Z,10.90
2022-10-10T06:35:58.596Z,11.00
2022-10-10T06:38:27.599Z,11.00
2022-10-10T06:41:00.304Z,11.00
2022-10-10T06:43:30.273Z,11.00
2022-10-10T06:45:58.714Z,11.00
2022-10-10T06:48:27.411Z,11.10
2022-10-10T06:51:00.350Z,11.10
2022-10-10T06:53:28.967Z,11.10
2022-10-10T06:55:58.075Z,11.20
2022-10-10T06:58:27.183Z,11.20
2022-10-10T07:00:58.766Z,11.20
2022-10-10T07:03:28.128Z,11.20
2022-10-10T07:05:58.403Z,11.30
2022-10-10T07:08:27.413Z,11.30
2022-10-10T07:10:55.949Z,11.30
2022-10-10T07:13:24.449Z,11.30
2022-10-10T07:15:53.406Z,11.30
2022-10-10T07:18:23.205Z,11.30
2022-10-10T07:20:51.380Z,11.30
2022-10-10T07:23:19.802Z,11.30
2022-10-10T07:25:48.077Z,11.30
2022-10-10T07:28:16.547Z,11.40
2022-10-10T07:30:45.480Z,11.40
2022-10-10T07:33:14.125Z,11.50
2022-10-10T07:35:43.774Z,11.70
2022-10-10T07:38:12.783Z,12.10
2022-10-10T07:40:41.543Z,12.20
2022-10-10T07:43:10.054Z,12.60
2022-10-10T07:45:38.571Z,12.70
2022-10-10T07:48:07.094Z,12.40
2022-10-10T07:50:35.322Z,12.50
2022-10-10T07:53:04.887Z,12.50
2022-10-10T07:55:33.307Z,12.50
2022-10-10T07:58:03.673Z,12.50
2022-10-10T08:00:33.302Z,12.50
2022-10-10T08:03:01.507Z,12.50
2022-10-10T08:05:29.695Z,12.90
2022-10-10T08:07:58.087Z,13.10
2022-10-10T08:10:28.830Z,13.30
2022-10-10T08:12:57.159Z,14.30
2022-10-10T08:15:26.900Z,14.90
2022-10-10T08:17:57.367Z,14.90
2022-10-10T08:20:25.727Z,14.40
2022-10-10T08:22:54.156Z,13.70
2022-10-10T08:25:22.941Z,13.40
2022-10-10T08:27:52.560Z,13.20
2022-10-10T08:30:22.088Z,13.30
2022-10-10T08:32:50.800Z,13.10
2022-10-10T08:35:19.428Z,13.00
2022-10-10T08:37:47.689Z,12.90
2022-10-10T08:40:20.385Z,12.90
2022-10-10T08:42:55.681Z,12.90
2022-10-10T08:45:27.568Z,13.00
2022-10-10T08:47:59.478Z,13.10
2022-10-10T08:50:31.640Z,13.20
2022-10-10T08:53:03.038Z,13.10
2022-10-10T08:55:33.728Z,13.20
2022-10-10T08:58:10.799Z,13.20
2022-10-10T09:00:42.854Z,13.30
2022-10-10T09:03:20.577Z,13.40
2022-10-10T09:06:02.426Z,13.40
2022-10-10T09:08:43.489Z,13.40
2022-10-10T09:11:28.564Z,13.40
2022-10-10T09:14:07.748Z,13.50
2022-10-10T09:16:43.752Z,13.50
2022-10-10T09:19:25.690Z,13.20
2022-10-10T09:21:58.435Z,13.20
2022-10-10T09:24:32.407Z,13.10
2022-10-10T09:27:05.175Z,13.20
2022-10-10T09:29:42.532Z,13.20
2022-10-10T09:32:15.309Z,13.20
2022-10-10T09:34:47.378Z,13.30
2022-10-10T09:37:35.522Z,13.30
2022-10-10T09:40:14.308Z,13.40
2022-10-10T09:42:45.303Z,13.50
2022-10-10T09:45:20.268Z,13.60
2022-10-10T09:47:52.481Z,13.70
2022-10-10T09:50:20.788Z,13.90
2022-10-10T09:52:49.716Z,14.10
2022-10-10T09:55:25.189Z,14.10
2022-10-10T09:57:55.045Z,14.20
2022-10-10T10:00:33.868Z,14.30
2022-10-10T10:03:10.023Z,14.30
2022-10-10T10:05:38.961Z,14.30
2022-10-10T10:08:18.631Z,14.40
2022-10-10T10:10:47.051Z,14.50
2022-10-10T10:13:20.777Z,14.50
2022-10-10T10:15:52.952Z,14.60
2022-10-10T10:18:27.836Z,14.70
2022-10-10T10:21:12.453Z,14.70
2022-10-10T10:23:44.728Z,14.80
2022-10-10T10:26:19.750Z,14.80
2022-10-10T10:28:48.861Z,14.80
2022-10-10T10:31:28.255Z,14.80
2022-10-10T10:34:18.813Z,14.80
2022-10-10T10:36:55.959Z,14.90
2022-10-10T10:39:43.574Z,15.00
2022-10-10T10:42:25.033Z,15.00
2022-10-10T10:45:02.291Z,15.00
2022-10-10T10:47:40.885Z,15.00
2022-10-10T10:50:26.696Z,15.10
2022-10-10T10:53:00.905Z,15.10
2022-10-10T10:55:39.487Z,15.10
2022-10-10T10:59:05.790Z,15.10
2022-10-10T11:01:55.259Z,15.10
2022-10-10T11:05:18.787Z,15.20
2022-10-10T11:07:44.157Z,15.20
2022-10-10T11:10:18.706Z,15.30
2022-10-10T11:13:00.769Z,15.40
2022-10-10T11:16:01.500Z,15.40
2022-10-10T11:18:28.895Z,15.40
2022-10-10T11:21:03.567Z,15.40
2022-10-10T11:23:37.872Z,15.50
2022-10-10T11:26:09.929Z,15.50
2022-10-10T11:28:47.161Z,15.50
2022-10-10T11:31:23.211Z,15.40
2022-10-10T11:33:57.409Z,15.40
2022-10-10T11:36:30.961Z,15.50
2022-10-10T11:39:04.707Z,15.30
2022-10-10T11:41:37.801Z,15.10
2022-10-10T11:44:11.542Z,15.10
2022-10-10T11:46:43.957Z,15.10
2022-10-10T11:49:21.126Z,15.10
2022-10-10T11:52:32.380Z,15.20
2022-10-10T11:55:07.176Z,15.20
2022-10-10T11:57:41.661Z,15.30
2022-10-10T12:00:15.160Z,15.20
2022-10-10T12:02:44.913Z,15.20
2022-10-10T12:05:22.280Z,15.30
2022-10-10T12:08:05.837Z,15.10
2022-10-10T12:10:40.274Z,15.10
2022-10-10T12:13:24.354Z,15.20
2022-10-10T12:15:55.450Z,15.20
2022-10-10T12:18:32.648Z,14.90
2022-10-10T12:21:09.361Z,15.00
2022-10-10T12:23:41.118Z,15.00
2022-10-10T12:26:17.657Z,14.80
2022-10-10T12:29:04.103Z,14.80
2022-10-10T12:31:34.566Z,14.90
2022-10-10T12:34:06.120Z,14.90
2022-10-10T12:37:07.521Z,14.90
2022-10-10T12:40:00.909Z,14.80
2022-10-10T12:42:31.902Z,14.80
2022-10-10T12:45:00.435Z,14.80
2022-10-10T12:48:04.450Z,14.80
2022-10-10T12:50:36.934Z,14.90
2022-10-10T12:53:07.566Z,14.90
2022-10-10T12:55:45.136Z,15.00
2022-10-10T12:58:26.632Z,15.10
2022-10-10T13:00:57.875Z,14.90
2022-10-10T13:03:31.312Z,14.90
2022-10-10T13:06:05.353Z,14.90
2022-10-10T13:08:37.240Z,14.90
2022-10-10T13:11:12.682Z,15.00
2022-10-10T13:13:41.729Z,15.00
2022-10-10T13:16:14.874Z,14.80
2022-10-10T13:18:49.967Z,14.90
2022-10-10T13:21:22.325Z,15.00
2022-10-10T13:26:46.967Z,14.90
2022-10-10T13:29:23.667Z,14.70
2022-10-10T13:31:53.802Z,14.80
2022-10-10T13:34:27.305Z,14.80
2022-10-10T13:36:58.229Z,14.90
2022-10-10T13:39:27.597Z,14.90
2022-10-10T13:41:57.942Z,14.80
2022-10-10T13:44:32.394Z,14.60
2022-10-10T13:47:21.027Z,14.70
2022-10-10T13:49:56.808Z,14.90
2022-10-10T13:52:25.455Z,15.00
2022-10-10T13:54:53.856Z,15.10
2022-10-10T13:57:26.788Z,15.10
2022-10-10T14:00:02.370Z,15.10
2022-10-10T14:02:33.313Z,15.00
2022-10-10T14:05:06.222Z,14.90
2022-10-10T14:07:34.732Z,14.90
2022-10-10T14:10:06.882Z,15.00
2022-10-10T14:12:41.211Z,14.90
2022-10-10T14:15:36.594Z,15.10
2022-10-10T14:18:15.521Z,14.90
2022-10-10T14:20:43.987Z,15.00
2022-10-10T14:23:12.539Z,15.00
2022-10-10T14:25:41.890Z,15.10
2022-10-10T14:28:17.192Z,15.20
2022-10-10T14:30:45.682Z,15.20
2022-10-10T14:33:15.193Z,15.30
2022-10-10T14:35:44.056Z,15.40
2022-10-10T14:38:14.168Z,15.30
2022-10-10T14:40:43.466Z,15.20
2022-10-10T14:43:13.226Z,15.20
2022-10-10T14:45:41.753Z,15.20
2022-10-10T14:48:12.127Z,15.30
2022-10-10T14:50:44.518Z,15.10
2022-10-10T14:53:12.864Z,15.10
2022-10-10T14:55:43.634Z,15.20
2022-10-10T14:58:16.918Z,15.00
2022-10-10T15:00:45.484Z,15.10
2022-10-10T15:03:14.436Z,15.30
2022-10-10T15:05:43.167Z,15.20
2022-10-10T15:08:15.678Z,15.20
2022-10-10T15:10:44.789Z,15.30
2022-10-10T15:13:15.534Z,15.30
2022-10-10T15:15:43.880Z,15.20
2022-10-10T15:18:40.889Z,15.10
2022-10-10T15:21:01.542Z,15.20
2022-10-10T15:23:30.014Z,15.20
2022-10-10T15:26:01.206Z,15.30
2022-10-10T15:28:30.702Z,15.10
2022-10-10T15:30:59.444Z,15.00
2022-10-10T15:33:28.102Z,15.00
2022-10-10T15:36:13.791Z,15.00
2022-10-10T15:38:44.171Z,15.00
2022-10-10T15:41:12.473Z,15.10
2022-10-10T15:43:47.003Z,15.10
2022-10-10T15:46:15.719Z,15.10
2022-10-10T15:48:46.767Z,15.10
2022-10-10T15:51:15.391Z,15.10
2022-10-10T15:53:43.877Z,15.10
2022-10-10T15:56:13.607Z,15.00
2022-10-10T15:58:42.436Z,15.10
2022-10-10T16:01:14.323Z,15.10
2022-10-10T16:03:43.620Z,14.90
2022-10-10T16:06:12.105Z,14.90
2022-10-10T16:08:40.721Z,15.00
2022-10-10T16:11:10.441Z,14.90
2022-10-10T16:13:39.532Z,14.90
2022-10-10T16:16:11.255Z,14.80
2022-10-10T16:18:41.768Z,14.90
2022-10-10T16:21:11.674Z,14.80
2022-10-10T16:23:40.549Z,14.80
2022-10-10T16:26:10.861Z,14.80
2022-10-10T16:28:39.268Z,14.80
2022-10-10T16:31:09.352Z,14.80
2022-10-10T16:33:39.037Z,14.80
2022-10-10T16:36:12.137Z,14.60
2022-10-10T16:38:40.506Z,14.80
2022-10-10T16:41:28.797Z,14.70
2022-10-10T16:43:59.638Z,14.80
2022-10-10T16:46:27.969Z,14.50
2022-10-10T16:48:59.223Z,14.60
2022-10-10T16:51:30.191Z,14.60
2022-10-10T16:54:01.705Z,14.70
2022-10-10T16:56:31.090Z,14.60
2022-10-10T16:58:59.667Z,14.60
2022-10-10T17:01:28.309Z,14.60
2022-10-10T17:03:58.574Z,14.50
2022-10-10T17:06:34.946Z,14.20
2022-10-10T17:09:03.457Z,14.10
2022-10-10T17:11:34.432Z,14.10
2022-10-10T17:14:02.536Z,14.00
2022-10-10T17:19:20.487Z,13.90
2022-10-10T17:21:50.278Z,13.90
2022-10-10T17:24:18.709Z,13.90
2022-10-10T17:26:47.133Z,13.90
2022-10-10T17:29:15.569Z,14.00
2022-10-10T17:31:44.274Z,14.00
2022-10-10T17:34:12.907Z,14.00
2022-10-10T17:36:41.444Z,14.00
2022-10-10T17:39:11.103Z,13.90
2022-10-10T17:41:39.511Z,13.90
2022-10-10T17:44:10.485Z,14.00
2022-10-10T17:46:40.156Z,14.00
2022-10-10T17:49:10.681Z,14.00
2022-10-10T17:51:40.057Z,14.00
2022-10-10T17:54:13.501Z,14.00
2022-10-10T17:56:44.503Z,14.00
2022-10-10T17:59:13.279Z,14.20
2022-10-10T18:01:41.554Z,14.30
2022-10-10T18:04:10.057Z,14.30
2022-10-10T18:06:39.021Z,14.30
2022-10-10T18:09:07.430Z,14.30
2022-10-10T18:11:37.168Z,14.30
2022-10-10T18:14:05.549Z,14.30
2022-10-10T18:16:35.452Z,14.30
2022-10-10T18:19:04.712Z,14.30
2022-10-10T18:21:33.324Z,14.30
2022-10-10T18:24:01.836Z,14.30
2022-10-10T18:26:31.613Z,14.30
2022-10-10T18:29:01.111Z,14.20
2022-10-10T18:31:31.060Z,14.20
2022-10-10T18:33:59.884Z,14.30
2022-10-10T18:36:29.473Z,14.30
2022-10-10T18:39:00.350Z,14.30
2022-10-10T18:41:33.979Z,14.20
2022-10-10T18:44:04.998Z,14.10
2022-10-10T18:46:33.469Z,14.10
2022-10-10T18:49:02.310Z,14.10
2022-10-10T18:51:30.954Z,14.20
2022-10-10T18:54:03.427Z,14.10
2022-10-10T18:56:32.902Z,14.10
2022-10-10T18:59:04.054Z,14.10
2022-10-10T19:01:35.287Z,14.00
2022-10-10T19:04:04.453Z,14.00
2022-10-10T19:06:33.259Z,13.90
2022-10-10T19:09:02.839Z,13.90
2022-10-10T19:11:33.349Z,13.70
2022-10-10T19:14:06.047Z,13.70
2022-10-10T19:16:35.155Z,13.60
2022-10-10T19:19:04.099Z,13.50
2022-10-10T19:21:34.536Z,13.40
2022-10-10T19:24:04.452Z,13.30
2022-10-10T19:26:33.584Z,13.20
2022-10-10T19:29:06.471Z,13.20
2022-10-10T19:31:37.528Z,13.10
2022-10-10T19:34:06.329Z,12.90
2022-10-10T19:36:38.453Z,12.90
2022-10-10T19:39:08.740Z,12.80
2022-10-10T19:41:37.243Z,12.70
2022-10-10T19:44:05.870Z,12.60
2022-10-10T19:46:37.105Z,12.70
2022-10-10T19:49:07.515Z,12.60
2022-10-10T19:51:35.920Z,12.50
2022-10-10T19:54:04.317Z,12.50
2022-10-10T19:56:32.741Z,12.40
2022-10-10T19:59:04.532Z,12.30
2022-10-10T20:01:33.564Z,12.70
2022-10-10T20:04:01.944Z,12.70
2022-10-10T20:06:31.408Z,12.80
2022-10-10T20:08:59.693Z,12.90
2022-10-10T20:11:28.034Z,12.80
2022-10-10T20:13:57.350Z,12.80
2022-10-10T20:16:27.396Z,12.70
2022-10-10T20:18:57.814Z,12.60
2022-10-10T20:21:31.511Z,12.50
2022-10-10T20:24:02.897Z,12.40
2022-10-10T20:26:31.622Z,12.30
2022-10-10T20:29:00.735Z,12.30
2022-10-10T20:31:30.909Z,12.20
2022-10-10T20:34:00.744Z,12.10
2022-10-10T20:36:29.919Z,11.90
2022-10-10T20:39:00.623Z,11.80
2022-10-10T20:41:31.964Z,11.70
2022-10-10T20:44:01.628Z,11.70
2022-10-10T20:46:33.274Z,11.70
2022-10-10T20:49:03.049Z,11.70
2022-10-10T20:51:31.584Z,11.60
2022-10-10T20:54:03.074Z,11.50
2022-10-10T20:56:32.704Z,11.40
2022-10-10T20:59:01.498Z,11.30
2022-10-10T21:01:31.156Z,11.30
2022-10-10T21:03:59.730Z,11.20
2022-10-10T21:06:29.742Z,11.20
2022-10-10T21:08:59.749Z,11.10
2022-10-10T21:11:29.470Z,11.00
2022-10-10T21:13:59.540Z,10.90
2022-10-10T21:16:29.542Z,10.90
2022-10-10T21:18:58.766Z,10.90
2022-10-10T21:21:29.437Z,10.80
2022-10-10T21:23:58.153Z,10.80
2022-10-10T21:26:28.959Z,10.70
2022-10-10T21:28:58.351Z,10.70
2022-10-10T21:31:28.596Z,10.70
2022-10-10T21:33:56.950Z,10.70
2022-10-10T21:36:27.112Z,10.70
2022-10-10T21:38:56.093Z,10.70
2022-10-10T21:41:25.508Z,10.70
2022-10-10T21:43:57.025Z,10.60
2022-10-10T21:46:28.613Z,10.60
2022-10-10T21:48:59.784Z,10.50
2022-10-10T21:51:28.050Z,10.40
2022-10-10T21:53:57.432Z,10.40
2022-10-10T21:56:26.156Z,10.40
2022-10-10T21:59:00.277Z,10.20
2022-10-10T22:01:32.752Z,10.20
2022-10-10T22:04:01.354Z,10.20
2022-10-10T22:06:29.829Z,10.10
2022-10-10T22:08:59.437Z,10.10
2022-10-10T22:11:29.938Z,10.10
2022-10-10T22:14:02.148Z,10.00
2022-10-10T22:16:31.019Z,10.10
2022-10-10T22:18:59.927Z,10.00
2022-10-10T22:21:32.073Z,9.90
2022-10-10T22:24:02.518Z,9.90
2022-10-10T22:26:31.828Z,9.90
2022-10-10T22:29:01.519Z,9.80
2022-10-10T22:31:30.148Z,9.80
2022-10-10T22:33:58.782Z,9.80
2022-10-10T22:36:27.194Z,9.80
2022-10-10T22:38:55.385Z,9.80
2022-10-10T22:41:23.737Z,9.90
2022-10-10T22:43:52.094Z,9.80
2022-10-10T22:46:21.590Z,9.80
2022-10-10T22:48:49.803Z,9.80
2022-10-10T22:51:19.733Z,9.80
2022-10-10T22:53:49.247Z,9.80
2022-10-10T22:56:20.176Z,9.80
2022-10-10T22:58:48.980Z,9.80
2022-10-10T23:01:18.834Z,9.80
2022-10-10T23:03:49.047Z,9.80
2022-10-10T23:06:17.834Z,9.80
2022-10-10T23:08:46.175Z,9.80
2022-10-10T23:11:14.507Z,9.70
2022-10-10T23:13:42.847Z,9.70
2022-10-10T23:16:12.143Z,9.70
2022-10-10T23:18:40.406Z,9.70
2022-10-10T23:21:10.109Z,9.70
2022-10-10T23:23:38.811Z,9.70
2022-10-10T23:26:08.632Z,9.70
2022-10-10T23:28:39.546Z,9.70
2022-10-10T23:31:09.220Z,9.60
2022-10-10T23:33:37.651Z,9.60
2022-10-10T23:36:11.017Z,9.60
2022-10-10T23:38:39.840Z,9.60
2022-10-10T23:41:08.521Z,9.60
2022-10-10T23:43:37.043Z,9.60
2022-10-10T23:46:06.616Z,9.60
2022-10-10T23:48:35.409Z,9.60
2022-10-10T23:51:03.751Z,9.60
2022-10-10T23:53:33.842Z,9.50
2022-10-10T23:56:02.580Z,9.60
2022-10-10T23:58:31.217Z,9.50
